Disclaimer

Please do not use the information listed here in-flight or in-navigation, as they are not provided to us by the airports but are provided by volunteers, so they might be outdated.

Search


Regions


Airport information page

Radio informations:
Tower (TWR) - 118.0 MHz
Ground (GND) - 121.6 MHz

Airport informations:
Latitude: 02° 15' 48.10" N
Longitude: 102° 15' 05.59" E
Elevation: 35 feet - 11 meters
Operating hours: Remarks
Operating agency: Civil government, landing fees and diplomatic clearance may be required
Timezone: UTC+8
Fuel: N/A

Runway information:
03/21 - 4501 x 121 feet< - >1372 x 37 meters

Recent METARs:
WMKM 201600Z 31003KT 250V010 9999 FEW017CB SCT140 BKN280 26/23 Q1012
WMKM 201600Z 31003KT 250V010 9999 FEW017CB SCT140 BKN280 26/23 Q1012
WMKM 201700Z VRB04KT 9999 FEW030 SCT140 BKN280 26/23 Q1011

Airport on the map: